Terminal Aerodrome Forecast
Issued by NWS

Current Version | Previous Version | Text Only | Print | Product List | Glossary On
Versions: 1 2 3 4 5 6 7 8 9 10 11 12 13 14 15 16 17 18 19
000
FTUS42 KMLB 221100 AAA
TAFSUA
TAF AMD
KSUA 221157Z 2212/2312 33003KT 5SM BR FEW030 BKN060
     FM221400 32004KT P6SM FEW080 BKN250
     FM221800 03007KT P6SM VCSH SCT030 SCT100 BKN250
     FM230000 03006KT P6SM VCSH SCT030 SCT100 BKN250
     FM230600 02007KT P6SM VCSH SCT020 SCT100 BKN250=

USA.gov is the U.S. government's official web portal to all federal, state and local government web resources and services.